sensor_id;sensor_type;location;lat;lon;timestamp;temperature;humidity
73939;DHT22;62291;47.554;8.504;2023-05-19T00:00:42;12.10;99.90
73939;DHT22;62291;47.554;8.504;2023-05-19T00:03:09;12.10;99.90
73939;DHT22;62291;47.554;8.504;2023-05-19T00:05:35;12.10;99.90
73939;DHT22;62291;47.554;8.504;2023-05-19T00:08:04;12.10;99.90
73939;DHT22;62291;47.554;8.504;2023-05-19T00:10:31;12.10;99.90
73939;DHT22;62291;47.554;8.504;2023-05-19T00:12:57;12.10;99.90
73939;DHT22;62291;47.554;8.504;2023-05-19T00:15:23;12.10;99.90
73939;DHT22;62291;47.554;8.504;2023-05-19T00:17:48;12.00;99.90
73939;DHT22;62291;47.554;8.504;2023-05-19T00:20:14;12.00;99.90
73939;DHT22;62291;47.554;8.504;2023-05-19T00:22:40;12.00;99.90
73939;DHT22;62291;47.554;8.504;2023-05-19T00:25:08;12.00;99.90
73939;DHT22;62291;47.554;8.504;2023-05-19T00:27:34;12.00;99.90
73939;DHT22;62291;47.554;8.504;2023-05-19T00:29:59;12.00;99.90
73939;DHT22;62291;47.554;8.504;2023-05-19T00:32:25;12.00;99.90
73939;DHT22;62291;47.554;8.504;2023-05-19T00:34:50;12.00;99.90
73939;DHT22;62291;47.554;8.504;2023-05-19T00:37:16;12.00;99.90
73939;DHT22;62291;47.554;8.504;2023-05-19T00:39:42;12.00;99.90
73939;DHT22;62291;47.554;8.504;2023-05-19T00:42:07;12.00;99.90
73939;DHT22;62291;47.554;8.504;2023-05-19T00:44:34;12.00;99.90
73939;DHT22;62291;47.554;8.504;2023-05-19T00:47:02;11.90;99.90
73939;DHT22;62291;47.554;8.504;2023-05-19T00:49:27;11.90;99.90
73939;DHT22;62291;47.554;8.504;2023-05-19T00:51:53;11.80;99.90
73939;DHT22;62291;47.554;8.504;2023-05-19T00:54:19;11.80;99.90
73939;DHT22;62291;47.554;8.504;2023-05-19T00:56:45;11.70;99.90
73939;DHT22;62291;47.554;8.504;2023-05-19T00:59:10;11.70;99.90
73939;DHT22;62291;47.554;8.504;2023-05-19T01:01:36;11.80;99.90
73939;DHT22;62291;47.554;8.504;2023-05-19T01:04:02;11.70;99.90
73939;DHT22;62291;47.554;8.504;2023-05-19T01:06:28;11.70;99.90
73939;DHT22;62291;47.554;8.504;2023-05-19T01:08:53;11.80;99.90
73939;DHT22;62291;47.554;8.504;2023-05-19T01:11:20;11.70;99.90
73939;DHT22;62291;47.554;8.504;2023-05-19T01:13:45;11.70;99.90
73939;DHT22;62291;47.554;8.504;2023-05-19T01:16:22;11.70;99.90
73939;DHT22;62291;47.554;8.504;2023-05-19T01:29:27;11.50;99.90
73939;DHT22;62291;47.554;8.504;2023-05-19T01:31:54;11.50;99.90
73939;DHT22;62291;47.554;8.504;2023-05-19T01:34:22;11.50;99.90
73939;DHT22;62291;47.554;8.504;2023-05-19T01:36:50;11.40;99.90
73939;DHT22;62291;47.554;8.504;2023-05-19T01:39:18;11.50;99.90
73939;DHT22;62291;47.554;8.504;2023-05-19T01:41:44;11.50;99.90
73939;DHT22;62291;47.554;8.504;2023-05-19T01:44:10;11.50;99.90
73939;DHT22;62291;47.554;8.504;2023-05-19T01:46:36;11.60;99.90
73939;DHT22;62291;47.554;8.504;2023-05-19T01:49:02;11.50;99.90
73939;DHT22;62291;47.554;8.504;2023-05-19T01:51:28;11.50;99.90
73939;DHT22;62291;47.554;8.504;2023-05-19T01:53:53;11.50;99.90
73939;DHT22;62291;47.554;8.504;2023-05-19T01:56:22;11.50;99.90
73939;DHT22;62291;47.554;8.504;2023-05-19T01:58:52;11.50;99.90
73939;DHT22;62291;47.554;8.504;2023-05-19T02:01:36;11.40;99.90
73939;DHT22;62291;47.554;8.504;2023-05-19T02:11:34;11.50;99.90
73939;DHT22;62291;47.554;8.504;2023-05-19T02:14:02;11.50;99.90
73939;DHT22;62291;47.554;8.504;2023-05-19T02:16:30;11.40;99.90
73939;DHT22;62291;47.554;8.504;2023-05-19T02:18:57;11.40;99.90
73939;DHT22;62291;47.554;8.504;2023-05-19T02:21:23;11.40;99.90
73939;DHT22;62291;47.554;8.504;2023-05-19T02:23:49;11.40;99.90
73939;DHT22;62291;47.554;8.504;2023-05-19T02:26:14;11.30;99.90
73939;DHT22;62291;47.554;8.504;2023-05-19T02:28:40;11.30;99.90
73939;DHT22;62291;47.554;8.504;2023-05-19T02:31:06;11.30;99.90
73939;DHT22;62291;47.554;8.504;2023-05-19T02:33:33;11.20;99.90
73939;DHT22;62291;47.554;8.504;2023-05-19T02:35:59;11.30;99.90
73939;DHT22;62291;47.554;8.504;2023-05-19T02:38:24;11.30;99.90
73939;DHT22;62291;47.554;8.504;2023-05-19T02:40:51;11.30;99.90
73939;DHT22;62291;47.554;8.504;2023-05-19T02:43:17;11.20;99.90
73939;DHT22;62291;47.554;8.504;2023-05-19T02:45:42;11.20;99.90
73939;DHT22;62291;47.554;8.504;2023-05-19T02:48:08;11.10;99.90
73939;DHT22;62291;47.554;8.504;2023-05-19T02:50:34;11.10;99.90
73939;DHT22;62291;47.554;8.504;2023-05-19T02:52:59;11.10;99.90
73939;DHT22;62291;47.554;8.504;2023-05-19T02:55:25;11.10;99.90
73939;DHT22;62291;47.554;8.504;2023-05-19T02:57:51;11.10;99.90
73939;DHT22;62291;47.554;8.504;2023-05-19T03:00:16;11.10;99.90
73939;DHT22;62291;47.554;8.504;2023-05-19T03:02:42;11.00;99.90
73939;DHT22;62291;47.554;8.504;2023-05-19T03:05:08;11.00;99.90
73939;DHT22;62291;47.554;8.504;2023-05-19T03:07:34;11.00;99.90
73939;DHT22;62291;47.554;8.504;2023-05-19T03:10:00;11.00;99.90
73939;DHT22;62291;47.554;8.504;2023-05-19T03:12:28;11.00;99.90
73939;DHT22;62291;47.554;8.504;2023-05-19T03:14:54;11.00;99.90
73939;DHT22;62291;47.554;8.504;2023-05-19T03:17:19;11.00;99.90
73939;DHT22;62291;47.554;8.504;2023-05-19T03:19:45;11.00;99.90
73939;DHT22;62291;47.554;8.504;2023-05-19T03:22:10;10.90;99.90
73939;DHT22;62291;47.554;8.504;2023-05-19T03:24:36;10.90;99.90
73939;DHT22;62291;47.554;8.504;2023-05-19T03:27:02;10.90;99.90
73939;DHT22;62291;47.554;8.504;2023-05-19T03:29:29;10.80;99.90
73939;DHT22;62291;47.554;8.504;2023-05-19T03:31:55;10.80;99.90
73939;DHT22;62291;47.554;8.504;2023-05-19T03:34:20;10.80;99.90
73939;DHT22;62291;47.554;8.504;2023-05-19T03:36:46;10.80;99.90
73939;DHT22;62291;47.554;8.504;2023-05-19T03:39:14;10.80;99.90
73939;DHT22;62291;47.554;8.504;2023-05-19T03:41:40;10.70;99.90
73939;DHT22;62291;47.554;8.504;2023-05-19T03:44:06;10.70;99.90
73939;DHT22;62291;47.554;8.504;2023-05-19T03:46:31;10.70;99.90
73939;DHT22;62291;47.554;8.504;2023-05-19T03:48:57;10.70;99.90
73939;DHT22;62291;47.554;8.504;2023-05-19T03:51:22;10.60;99.90
73939;DHT22;62291;47.554;8.504;2023-05-19T03:53:48;10.60;99.90
73939;DHT22;62291;47.554;8.504;2023-05-19T03:56:13;10.50;99.90
73939;DHT22;62291;47.554;8.504;2023-05-19T03:58:41;10.50;99.90
73939;DHT22;62291;47.554;8.504;2023-05-19T04:01:09;10.50;99.90
73939;DHT22;62291;47.554;8.504;2023-05-19T04:03:34;10.50;99.90
73939;DHT22;62291;47.554;8.504;2023-05-19T04:06:00;10.50;99.90
73939;DHT22;62291;47.554;8.504;2023-05-19T04:08:25;10.50;99.90
73939;DHT22;62291;47.554;8.504;2023-05-19T04:10:51;10.50;99.90
73939;DHT22;62291;47.554;8.504;2023-05-19T04:13:16;10.50;99.90
73939;DHT22;62291;47.554;8.504;2023-05-19T04:15:42;10.50;99.90
73939;DHT22;62291;47.554;8.504;2023-05-19T04:18:07;10.50;99.90
73939;DHT22;62291;47.554;8.504;2023-05-19T04:20:33;10.60;99.90
73939;DHT22;62291;47.554;8.504;2023-05-19T04:22:59;10.60;99.90
73939;DHT22;62291;47.554;8.504;2023-05-19T04:25:24;10.60;99.90
73939;DHT22;62291;47.554;8.504;2023-05-19T04:27:52;10.60;99.90
73939;DHT22;62291;47.554;8.504;2023-05-19T04:30:18;10.60;99.90
73939;DHT22;62291;47.554;8.504;2023-05-19T04:32:49;10.60;99.90
73939;DHT22;62291;47.554;8.504;2023-05-19T04:35:15;10.60;99.90
73939;DHT22;62291;47.554;8.504;2023-05-19T04:37:42;10.70;99.90
73939;DHT22;62291;47.554;8.504;2023-05-19T04:40:10;10.70;99.90
73939;DHT22;62291;47.554;8.504;2023-05-19T04:42:36;10.80;99.90
73939;DHT22;62291;47.554;8.504;2023-05-19T04:45:05;10.80;99.90
73939;DHT22;62291;47.554;8.504;2023-05-19T04:47:33;10.80;99.90
73939;DHT22;62291;47.554;8.504;2023-05-19T04:50:01;10.90;99.90
73939;DHT22;62291;47.554;8.504;2023-05-19T04:52:26;10.90;99.90
73939;DHT22;62291;47.554;8.504;2023-05-19T04:54:52;10.80;99.90
73939;DHT22;62291;47.554;8.504;2023-05-19T04:57:18;10.90;99.90
73939;DHT22;62291;47.554;8.504;2023-05-19T04:59:44;10.90;99.90
73939;DHT22;62291;47.554;8.504;2023-05-19T05:02:10;10.90;99.90
73939;DHT22;62291;47.554;8.504;2023-05-19T05:04:36;11.00;99.90
73939;DHT22;62291;47.554;8.504;2023-05-19T05:07:04;11.20;99.90
73939;DHT22;62291;47.554;8.504;2023-05-19T05:09:30;11.30;99.90
73939;DHT22;62291;47.554;8.504;2023-05-19T05:11:56;11.40;99.90
73939;DHT22;62291;47.554;8.504;2023-05-19T05:14:21;11.50;99.90
73939;DHT22;62291;47.554;8.504;2023-05-19T05:16:48;11.60;99.90
73939;DHT22;62291;47.554;8.504;2023-05-19T05:19:13;11.70;99.90
73939;DHT22;62291;47.554;8.504;2023-05-19T05:21:39;11.70;99.90
73939;DHT22;62291;47.554;8.504;2023-05-19T05:24:06;11.80;99.90
73939;DHT22;62291;47.554;8.504;2023-05-19T05:26:32;12.00;99.90
73939;DHT22;62291;47.554;8.504;2023-05-19T05:28:58;12.00;99.90
73939;DHT22;62291;47.554;8.504;2023-05-19T05:31:24;12.00;99.90
73939;DHT22;62291;47.554;8.504;2023-05-19T05:33:50;11.90;99.90
73939;DHT22;62291;47.554;8.504;2023-05-19T05:36:15;11.80;99.90
73939;DHT22;62291;47.554;8.504;2023-05-19T05:38:41;11.80;99.90
73939;DHT22;62291;47.554;8.504;2023-05-19T05:41:06;11.90;99.90
73939;DHT22;62291;47.554;8.504;2023-05-19T05:43:32;11.90;99.90
73939;DHT22;62291;47.554;8.504;2023-05-19T05:45:57;11.90;99.90
73939;DHT22;62291;47.554;8.504;2023-05-19T05:48:23;12.00;99.90
73939;DHT22;62291;47.554;8.504;2023-05-19T05:50:49;11.90;99.90
73939;DHT22;62291;47.554;8.504;2023-05-19T05:53:18;11.80;99.90
73939;DHT22;62291;47.554;8.504;2023-05-19T05:55:47;11.80;99.90
73939;DHT22;62291;47.554;8.504;2023-05-19T05:58:13;11.80;99.90
73939;DHT22;62291;47.554;8.504;2023-05-19T06:00:39;11.70;99.90
73939;DHT22;62291;47.554;8.504;2023-05-19T06:03:08;11.60;99.90
73939;DHT22;62291;47.554;8.504;2023-05-19T06:05:34;11.60;99.90
73939;DHT22;62291;47.554;8.504;2023-05-19T06:08:00;11.60;99.90
73939;DHT22;62291;47.554;8.504;2023-05-19T06:10:27;11.60;99.90
73939;DHT22;62291;47.554;8.504;2023-05-19T06:12:52;11.60;99.90
73939;DHT22;62291;47.554;8.504;2023-05-19T06:15:18;11.70;99.90
73939;DHT22;62291;47.554;8.504;2023-05-19T06:17:43;11.60;99.90
73939;DHT22;62291;47.554;8.504;2023-05-19T06:20:09;11.70;99.90
73939;DHT22;62291;47.554;8.504;2023-05-19T06:22:35;11.60;99.90
73939;DHT22;62291;47.554;8.504;2023-05-19T06:25:01;11.50;99.90
73939;DHT22;62291;47.554;8.504;2023-05-19T06:27:27;11.40;99.90
73939;DHT22;62291;47.554;8.504;2023-05-19T06:29:53;11.40;99.90
73939;DHT22;62291;47.554;8.504;2023-05-19T06:32:19;11.40;99.90
73939;DHT22;62291;47.554;8.504;2023-05-19T06:34:44;11.40;99.90
73939;DHT22;62291;47.554;8.504;2023-05-19T06:37:10;11.40;99.90
73939;DHT22;62291;47.554;8.504;2023-05-19T06:39:36;11.40;99.90
73939;DHT22;62291;47.554;8.504;2023-05-19T06:42:02;11.50;99.90
73939;DHT22;62291;47.554;8.504;2023-05-19T06:44:28;11.50;99.90
73939;DHT22;62291;47.554;8.504;2023-05-19T06:46:53;11.50;99.90
73939;DHT22;62291;47.554;8.504;2023-05-19T06:49:19;11.40;99.90
73939;DHT22;62291;47.554;8.504;2023-05-19T06:51:44;11.30;99.90
73939;DHT22;62291;47.554;8.504;2023-05-19T06:54:10;11.30;99.90
73939;DHT22;62291;47.554;8.504;2023-05-19T06:56:37;11.30;99.90
73939;DHT22;62291;47.554;8.504;2023-05-19T06:59:02;11.30;99.90
73939;DHT22;62291;47.554;8.504;2023-05-19T07:01:28;11.40;99.90
73939;DHT22;62291;47.554;8.504;2023-05-19T07:03:54;11.40;99.90
73939;DHT22;62291;47.554;8.504;2023-05-19T07:06:20;11.40;99.90
73939;DHT22;62291;47.554;8.504;2023-05-19T07:08:45;11.40;99.90
73939;DHT22;62291;47.554;8.504;2023-05-19T07:11:11;11.40;99.90
73939;DHT22;62291;47.554;8.504;2023-05-19T07:13:36;11.40;99.90
73939;DHT22;62291;47.554;8.504;2023-05-19T07:16:02;11.50;99.90
73939;DHT22;62291;47.554;8.504;2023-05-19T07:18:27;11.50;99.90
73939;DHT22;62291;47.554;8.504;2023-05-19T07:20:56;11.40;99.90
73939;DHT22;62291;47.554;8.504;2023-05-19T07:23:22;11.40;99.90
73939;DHT22;62291;47.554;8.504;2023-05-19T07:25:48;11.40;99.90
73939;DHT22;62291;47.554;8.504;2023-05-19T07:28:13;11.50;99.90
73939;DHT22;62291;47.554;8.504;2023-05-19T07:30:39;11.70;99.90
73939;DHT22;62291;47.554;8.504;2023-05-19T07:33:05;11.80;99.90
73939;DHT22;62291;47.554;8.504;2023-05-19T07:35:31;11.90;99.90
73939;DHT22;62291;47.554;8.504;2023-05-19T07:37:56;12.00;99.90
73939;DHT22;62291;47.554;8.504;2023-05-19T07:40:22;12.00;99.90
73939;DHT22;62291;47.554;8.504;2023-05-19T07:42:48;11.90;99.90
73939;DHT22;62291;47.554;8.504;2023-05-19T07:45:13;12.00;99.90
73939;DHT22;62291;47.554;8.504;2023-05-19T07:47:39;11.90;99.90
73939;DHT22;62291;47.554;8.504;2023-05-19T07:50:05;12.00;99.90
73939;DHT22;62291;47.554;8.504;2023-05-19T07:52:31;12.10;99.90
73939;DHT22;62291;47.554;8.504;2023-05-19T07:54:57;12.10;99.90
73939;DHT22;62291;47.554;8.504;2023-05-19T07:57:22;12.00;99.90
73939;DHT22;62291;47.554;8.504;2023-05-19T07:59:48;12.10;99.90
73939;DHT22;62291;47.554;8.504;2023-05-19T08:02:13;12.10;99.90
73939;DHT22;62291;47.554;8.504;2023-05-19T08:04:39;12.10;99.90
73939;DHT22;62291;47.554;8.504;2023-05-19T08:07:05;12.20;99.90
73939;DHT22;62291;47.554;8.504;2023-05-19T08:09:30;12.30;99.90
73939;DHT22;62291;47.554;8.504;2023-05-19T08:11:56;12.30;99.90
73939;DHT22;62291;47.554;8.504;2023-05-19T08:14:22;12.50;99.90
73939;DHT22;62291;47.554;8.504;2023-05-19T08:16:48;12.60;99.90
73939;DHT22;62291;47.554;8.504;2023-05-19T08:19:13;12.80;99.90
73939;DHT22;62291;47.554;8.504;2023-05-19T08:21:39;12.90;99.90
73939;DHT22;62291;47.554;8.504;2023-05-19T08:24:06;12.90;99.90
73939;DHT22;62291;47.554;8.504;2023-05-19T08:26:32;12.90;99.90
73939;DHT22;62291;47.554;8.504;2023-05-19T08:28:57;13.20;99.90
73939;DHT22;62291;47.554;8.504;2023-05-19T08:31:23;13.30;99.90
73939;DHT22;62291;47.554;8.504;2023-05-19T08:33:49;13.30;99.90
73939;DHT22;62291;47.554;8.504;2023-05-19T08:36:14;13.40;99.90
73939;DHT22;62291;47.554;8.504;2023-05-19T08:38:40;13.50;99.90
73939;DHT22;62291;47.554;8.504;2023-05-19T08:41:06;13.70;99.90
73939;DHT22;62291;47.554;8.504;2023-05-19T08:43:31;14.00;99.90
73939;DHT22;62291;47.554;8.504;2023-05-19T08:45:57;14.10;99.90
73939;DHT22;62291;47.554;8.504;2023-05-19T08:48:23;14.30;99.90
73939;DHT22;62291;47.554;8.504;2023-05-19T08:50:56;14.30;99.90
73939;DHT22;62291;47.554;8.504;2023-05-19T08:53:28;14.40;99.90
73939;DHT22;62291;47.554;8.504;2023-05-19T08:56:10;14.30;99.90
73939;DHT22;62291;47.554;8.504;2023-05-19T08:58:39;13.90;99.90
73939;DHT22;62291;47.554;8.504;2023-05-19T09:01:14;13.60;99.90
73939;DHT22;62291;47.554;8.504;2023-05-19T09:03:42;13.50;99.90
73939;DHT22;62291;47.554;8.504;2023-05-19T09:06:09;13.50;99.90
73939;DHT22;62291;47.554;8.504;2023-05-19T09:08:36;13.60;99.90
73939;DHT22;62291;47.554;8.504;2023-05-19T09:11:02;13.80;99.90
73939;DHT22;62291;47.554;8.504;2023-05-19T09:13:28;14.10;99.90
73939;DHT22;62291;47.554;8.504;2023-05-19T09:15:55;14.40;99.90
73939;DHT22;62291;47.554;8.504;2023-05-19T09:18:20;14.70;99.90
73939;DHT22;62291;47.554;8.504;2023-05-19T09:20:46;14.90;99.90
73939;DHT22;62291;47.554;8.504;2023-05-19T09:23:12;15.00;99.90
73939;DHT22;62291;47.554;8.504;2023-05-19T09:25:48;15.30;99.90
73939;DHT22;62291;47.554;8.504;2023-05-19T09:28:13;15.40;99.90
73939;DHT22;62291;47.554;8.504;2023-05-19T09:30:40;15.50;99.90
73939;DHT22;62291;47.554;8.504;2023-05-19T09:33:05;15.40;99.90
73939;DHT22;62291;47.554;8.504;2023-05-19T09:35:34;15.60;99.90
73939;DHT22;62291;47.554;8.504;2023-05-19T09:38:00;15.40;99.90
73939;DHT22;62291;47.554;8.504;2023-05-19T09:40:26;15.20;99.90
73939;DHT22;62291;47.554;8.504;2023-05-19T09:42:52;15.40;99.90
73939;DHT22;62291;47.554;8.504;2023-05-19T09:45:20;15.40;99.90
73939;DHT22;62291;47.554;8.504;2023-05-19T09:47:45;15.40;99.90
73939;DHT22;62291;47.554;8.504;2023-05-19T09:50:11;15.30;99.90
73939;DHT22;62291;47.554;8.504;2023-05-19T09:52:38;15.00;99.90
73939;DHT22;62291;47.554;8.504;2023-05-19T09:55:07;14.70;99.90
73939;DHT22;62291;47.554;8.504;2023-05-19T09:57:34;14.40;99.90
73939;DHT22;62291;47.554;8.504;2023-05-19T10:00:03;14.40;99.90
73939;DHT22;62291;47.554;8.504;2023-05-19T10:02:35;14.90;99.90
73939;DHT22;62291;47.554;8.504;2023-05-19T10:05:01;15.20;99.90
73939;DHT22;62291;47.554;8.504;2023-05-19T10:07:27;15.10;99.90
73939;DHT22;62291;47.554;8.504;2023-05-19T10:09:53;15.10;99.90
73939;DHT22;62291;47.554;8.504;2023-05-19T10:12:20;15.50;99.90
73939;DHT22;62291;47.554;8.504;2023-05-19T10:14:46;15.60;99.90
73939;DHT22;62291;47.554;8.504;2023-05-19T10:17:11;15.40;99.90
73939;DHT22;62291;47.554;8.504;2023-05-19T10:19:37;15.40;99.90
73939;DHT22;62291;47.554;8.504;2023-05-19T10:22:04;15.60;99.90
73939;DHT22;62291;47.554;8.504;2023-05-19T10:24:30;15.80;99.90
73939;DHT22;62291;47.554;8.504;2023-05-19T10:26:57;15.90;99.90
73939;DHT22;62291;47.554;8.504;2023-05-19T10:29:26;16.40;99.90
73939;DHT22;62291;47.554;8.504;2023-05-19T10:31:52;16.70;99.90
73939;DHT22;62291;47.554;8.504;2023-05-19T10:36:53;16.20;99.20
73939;DHT22;62291;47.554;8.504;2023-05-19T10:39:24;16.10;99.90
73939;DHT22;62291;47.554;8.504;2023-05-19T10:47:00;16.20;99.90
73939;DHT22;62291;47.554;8.504;2023-05-19T10:49:25;16.40;99.90
73939;DHT22;62291;47.554;8.504;2023-05-19T10:51:51;16.80;99.50
73939;DHT22;62291;47.554;8.504;2023-05-19T10:54:37;17.50;99.90
73939;DHT22;62291;47.554;8.504;2023-05-19T10:57:03;18.00;97.70
73939;DHT22;62291;47.554;8.504;2023-05-19T10:59:29;17.90;98.80
73939;DHT22;62291;47.554;8.504;2023-05-19T11:01:55;18.20;97.90
73939;DHT22;62291;47.554;8.504;2023-05-19T11:04:21;18.30;97.20
73939;DHT22;62291;47.554;8.504;2023-05-19T11:07:02;18.70;96.80
73939;DHT22;62291;47.554;8.504;2023-05-19T11:09:28;18.90;96.50
73939;DHT22;62291;47.554;8.504;2023-05-19T11:12:01;18.70;96.00
73939;DHT22;62291;47.554;8.504;2023-05-19T11:14:27;18.10;95.90
73939;DHT22;62291;47.554;8.504;2023-05-19T11:16:56;18.10;96.80
73939;DHT22;62291;47.554;8.504;2023-05-19T11:19:28;18.50;96.70
73939;DHT22;62291;47.554;8.504;2023-05-19T11:21:55;18.80;96.70
73939;DHT22;62291;47.554;8.504;2023-05-19T11:24:37;18.70;95.00
73939;DHT22;62291;47.554;8.504;2023-05-19T11:32:32;18.30;96.70
73939;DHT22;62291;47.554;8.504;2023-05-19T11:34:58;17.90;96.50
73939;DHT22;62291;47.554;8.504;2023-05-19T11:37:24;17.60;97.30
73939;DHT22;62291;47.554;8.504;2023-05-19T11:39:50;17.60;96.90
73939;DHT22;62291;47.554;8.504;2023-05-19T11:42:16;18.30;96.70
73939;DHT22;62291;47.554;8.504;2023-05-19T11:44:42;18.50;98.70
73939;DHT22;62291;47.554;8.504;2023-05-19T11:47:10;18.60;97.20
73939;DHT22;62291;47.554;8.504;2023-05-19T11:49:36;18.60;96.70
73939;DHT22;62291;47.554;8.504;2023-05-19T11:52:02;18.40;97.00
73939;DHT22;62291;47.554;8.504;2023-05-19T11:54:31;18.40;96.00
73939;DHT22;62291;47.554;8.504;2023-05-19T11:57:00;18.50;97.40
73939;DHT22;62291;47.554;8.504;2023-05-19T11:59:33;18.20;96.50
73939;DHT22;62291;47.554;8.504;2023-05-19T12:01:59;18.50;98.00
73939;DHT22;62291;47.554;8.504;2023-05-19T12:04:25;18.70;96.50
73939;DHT22;62291;47.554;8.504;2023-05-19T12:06:51;19.20;98.30
73939;DHT22;62291;47.554;8.504;2023-05-19T12:09:17;19.60;96.00
73939;DHT22;62291;47.554;8.504;2023-05-19T12:11:42;19.60;97.10
73939;DHT22;62291;47.554;8.504;2023-05-19T12:14:08;19.40;97.10
73939;DHT22;62291;47.554;8.504;2023-05-19T12:16:34;19.30;95.30
73939;DHT22;62291;47.554;8.504;2023-05-19T12:19:00;19.20;96.00
73939;DHT22;62291;47.554;8.504;2023-05-19T12:21:25;18.90;96.20
73939;DHT22;62291;47.554;8.504;2023-05-19T12:23:51;18.60;96.80
73939;DHT22;62291;47.554;8.504;2023-05-19T12:26:17;18.60;96.20
73939;DHT22;62291;47.554;8.504;2023-05-19T12:28:44;18.60;97.10
73939;DHT22;62291;47.554;8.504;2023-05-19T12:31:10;18.70;96.50
73939;DHT22;62291;47.554;8.504;2023-05-19T12:33:36;18.40;96.60
73939;DHT22;62291;47.554;8.504;2023-05-19T12:36:01;18.50;99.30
73939;DHT22;62291;47.554;8.504;2023-05-19T12:38:27;18.40;96.50
73939;DHT22;62291;47.554;8.504;2023-05-19T12:40:52;18.40;96.80
73939;DHT22;62291;47.554;8.504;2023-05-19T12:43:21;18.10;97.20
73939;DHT22;62291;47.554;8.504;2023-05-19T12:45:47;17.70;97.90
73939;DHT22;62291;47.554;8.504;2023-05-19T12:48:13;17.70;98.10
73939;DHT22;62291;47.554;8.504;2023-05-19T12:50:42;17.80;98.00
73939;DHT22;62291;47.554;8.504;2023-05-19T12:53:12;17.80;97.60
73939;DHT22;62291;47.554;8.504;2023-05-19T12:55:41;17.90;97.50
73939;DHT22;62291;47.554;8.504;2023-05-19T12:58:07;17.80;98.40
73939;DHT22;62291;47.554;8.504;2023-05-19T13:00:33;17.90;98.20
73939;DHT22;62291;47.554;8.504;2023-05-19T13:03:05;18.00;98.30
73939;DHT22;62291;47.554;8.504;2023-05-19T13:05:32;18.10;97.80
73939;DHT22;62291;47.554;8.504;2023-05-19T13:08:03;18.10;98.10
73939;DHT22;62291;47.554;8.504;2023-05-19T13:10:29;18.20;97.60
73939;DHT22;62291;47.554;8.504;2023-05-19T13:12:56;18.40;96.50
73939;DHT22;62291;47.554;8.504;2023-05-19T13:15:22;18.30;97.00
73939;DHT22;62291;47.554;8.504;2023-05-19T13:17:48;18.10;98.50
73939;DHT22;62291;47.554;8.504;2023-05-19T13:20:14;18.20;97.20
73939;DHT22;62291;47.554;8.504;2023-05-19T13:22:39;18.00;96.70
73939;DHT22;62291;47.554;8.504;2023-05-19T13:25:05;17.90;96.80
73939;DHT22;62291;47.554;8.504;2023-05-19T13:27:31;17.70;97.40
73939;DHT22;62291;47.554;8.504;2023-05-19T13:29:56;17.50;97.60
73939;DHT22;62291;47.554;8.504;2023-05-19T13:32:22;17.20;97.20
73939;DHT22;62291;47.554;8.504;2023-05-19T13:34:47;17.20;98.40
73939;DHT22;62291;47.554;8.504;2023-05-19T13:37:13;17.40;98.20
73939;DHT22;62291;47.554;8.504;2023-05-19T13:39:38;17.50;99.80
73939;DHT22;62291;47.554;8.504;2023-05-19T13:42:05;17.80;99.90
73939;DHT22;62291;47.554;8.504;2023-05-19T13:44:31;18.10;97.70
73939;DHT22;62291;47.554;8.504;2023-05-19T13:46:56;18.00;97.90
73939;DHT22;62291;47.554;8.504;2023-05-19T13:49:22;17.80;97.60
73939;DHT22;62291;47.554;8.504;2023-05-19T13:51:47;17.50;98.30
73939;DHT22;62291;47.554;8.504;2023-05-19T13:54:14;17.10;98.50
73939;DHT22;62291;47.554;8.504;2023-05-19T13:56:39;16.90;98.50
73939;DHT22;62291;47.554;8.504;2023-05-19T13:59:05;16.60;98.60
73939;DHT22;62291;47.554;8.504;2023-05-19T14:01:31;16.50;98.80
73939;DHT22;62291;47.554;8.504;2023-05-19T14:03:57;16.30;99.30
73939;DHT22;62291;47.554;8.504;2023-05-19T14:06:22;16.40;99.60
73939;DHT22;62291;47.554;8.504;2023-05-19T14:08:48;16.40;99.80
73939;DHT22;62291;47.554;8.504;2023-05-19T14:11:19;16.30;99.40
73939;DHT22;62291;47.554;8.504;2023-05-19T14:13:48;16.30;99.50
73939;DHT22;62291;47.554;8.504;2023-05-19T14:16:15;16.30;99.90
73939;DHT22;62291;47.554;8.504;2023-05-19T14:18:40;16.30;99.90
73939;DHT22;62291;47.554;8.504;2023-05-19T14:21:06;16.30;99.10
73939;DHT22;62291;47.554;8.504;2023-05-19T14:23:32;16.30;99.40
73939;DHT22;62291;47.554;8.504;2023-05-19T14:25:58;16.40;99.90
73939;DHT22;62291;47.554;8.504;2023-05-19T14:28:23;16.50;99.70
73939;DHT22;62291;47.554;8.504;2023-05-19T14:30:49;16.40;99.90
73939;DHT22;62291;47.554;8.504;2023-05-19T14:33:15;16.30;99.90
73939;DHT22;62291;47.554;8.504;2023-05-19T14:35:41;16.20;99.90
73939;DHT22;62291;47.554;8.504;2023-05-19T14:38:06;16.10;99.60
73939;DHT22;62291;47.554;8.504;2023-05-19T14:40:32;16.20;99.90
73939;DHT22;62291;47.554;8.504;2023-05-19T14:42:57;16.20;99.90
73939;DHT22;62291;47.554;8.504;2023-05-19T14:45:23;16.40;99.70
73939;DHT22;62291;47.554;8.504;2023-05-19T14:47:48;16.50;98.90
73939;DHT22;62291;47.554;8.504;2023-05-19T14:50:14;16.50;99.10
73939;DHT22;62291;47.554;8.504;2023-05-19T14:52:40;16.50;98.60
73939;DHT22;62291;47.554;8.504;2023-05-19T14:55:05;16.30;98.90
73939;DHT22;62291;47.554;8.504;2023-05-19T14:57:31;16.40;99.50
73939;DHT22;62291;47.554;8.504;2023-05-19T14:59:57;16.60;99.40
73939;DHT22;62291;47.554;8.504;2023-05-19T15:02:22;16.70;99.70
73939;DHT22;62291;47.554;8.504;2023-05-19T15:04:48;16.70;99.70
73939;DHT22;62291;47.554;8.504;2023-05-19T15:07:13;16.60;98.80
73939;DHT22;62291;47.554;8.504;2023-05-19T15:09:39;16.20;98.60
73939;DHT22;62291;47.554;8.504;2023-05-19T15:12:05;16.10;99.90
73939;DHT22;62291;47.554;8.504;2023-05-19T15:14:31;16.00;98.70
73939;DHT22;62291;47.554;8.504;2023-05-19T15:16:56;16.00;99.90
73939;DHT22;62291;47.554;8.504;2023-05-19T15:19:22;16.00;99.40
73939;DHT22;62291;47.554;8.504;2023-05-19T15:21:47;16.00;99.20
73939;DHT22;62291;47.554;8.504;2023-05-19T15:24:15;15.80;99.30
73939;DHT22;62291;47.554;8.504;2023-05-19T15:26:40;15.80;99.60
73939;DHT22;62291;47.554;8.504;2023-05-19T15:29:06;15.80;99.90
73939;DHT22;62291;47.554;8.504;2023-05-19T15:31:31;15.90;99.20
73939;DHT22;62291;47.554;8.504;2023-05-19T15:33:57;15.90;99.50
73939;DHT22;62291;47.554;8.504;2023-05-19T15:36:22;16.00;99.70
73939;DHT22;62291;47.554;8.504;2023-05-19T15:38:48;16.00;99.90
73939;DHT22;62291;47.554;8.504;2023-05-19T15:41:14;16.00;99.80
73939;DHT22;62291;47.554;8.504;2023-05-19T15:43:39;15.90;99.60
73939;DHT22;62291;47.554;8.504;2023-05-19T15:46:05;15.80;99.90
73939;DHT22;62291;47.554;8.504;2023-05-19T15:48:31;15.80;99.10
73939;DHT22;62291;47.554;8.504;2023-05-19T15:50:57;15.70;99.90
73939;DHT22;62291;47.554;8.504;2023-05-19T15:53:23;15.70;99.90
73939;DHT22;62291;47.554;8.504;2023-05-19T15:55:49;15.80;99.80